createdAt,value
2019-01-08T00:01:50.497Z,47.72
2019-01-08T00:06:53.965Z,47.72
2019-01-08T00:11:57.428Z,47.71
2019-01-08T00:17:00.986Z,47.68
2019-01-08T00:22:04.744Z,47.68
2019-01-08T00:27:08.188Z,47.72
2019-01-08T00:32:11.655Z,47.70
2019-01-08T00:37:15.118Z,47.71
2019-01-08T00:42:18.579Z,47.66
2019-01-08T00:47:22.040Z,47.71
2019-01-08T00:52:25.503Z,47.70
2019-01-08T00:57:28.968Z,47.71
2019-01-08T01:02:32.424Z,47.70
2019-01-08T01:07:35.874Z,47.72
2019-01-08T01:12:39.329Z,47.72
2019-01-08T01:17:42.786Z,47.70
2019-01-08T01:22:46.265Z,47.69
2019-01-08T01:27:49.728Z,47.69
2019-01-08T01:32:53.193Z,47.71
2019-01-08T01:37:56.649Z,47.70
2019-01-08T01:43:00.117Z,47.69
2019-01-08T01:48:03.573Z,47.70
2019-01-08T01:53:07.030Z,47.70
2019-01-08T01:58:10.485Z,47.70
2019-01-08T02:03:13.941Z,47.67
2019-01-08T02:08:17.401Z,47.68
2019-01-08T02:13:20.857Z,47.65
2019-01-08T02:18:24.321Z,47.68
2019-01-08T02:23:27.781Z,47.67
2019-01-08T02:28:31.240Z,47.71
2019-01-08T02:33:34.697Z,47.67
2019-01-08T02:38:38.159Z,47.69
2019-01-08T02:43:41.618Z,47.71
2019-01-08T02:48:45.087Z,47.69
2019-01-08T02:53:48.548Z,47.67
2019-01-08T02:58:52.005Z,47.68
2019-01-08T03:03:55.472Z,47.67
2019-01-08T03:08:58.925Z,47.67
2019-01-08T03:14:02.452Z,47.67
2019-01-08T03:19:05.917Z,47.65
2019-01-08T03:24:09.377Z,47.65
2019-01-08T03:29:12.833Z,47.69
2019-01-08T03:34:16.289Z,47.68
2019-01-08T03:39:19.751Z,47.70
2019-01-08T03:44:23.205Z,47.70
2019-01-08T03:49:26.664Z,47.70
2019-01-08T03:54:30.117Z,47.71
2019-01-08T03:59:41.737Z,47.73
2019-01-08T04:04:38.757Z,47.73
2019-01-08T04:09:42.302Z,47.74
2019-01-08T04:14:45.759Z,47.74
2019-01-08T04:19:49.229Z,47.76
2019-01-08T04:24:52.690Z,47.76
2019-01-08T04:29:56.152Z,47.78
2019-01-08T04:34:59.609Z,47.76
2019-01-08T04:40:03.158Z,47.78
2019-01-08T04:45:06.634Z,47.75
2019-01-08T04:50:10.109Z,47.79
2019-01-08T04:55:13.573Z,47.74
2019-01-08T05:00:17.037Z,47.75
2019-01-08T05:05:20.502Z,47.75
2019-01-08T05:10:23.963Z,47.77
2019-01-08T05:15:27.421Z,47.77
2019-01-08T05:20:30.884Z,47.75
2019-01-08T05:25:34.341Z,47.72
2019-01-08T05:30:37.806Z,47.66
2019-01-08T05:35:41.437Z,47.66
2019-01-08T05:40:44.896Z,47.64
2019-01-08T05:45:48.358Z,47.61
2019-01-08T05:50:51.833Z,47.62
2019-01-08T05:55:55.286Z,47.61
2019-01-08T06:01:00.277Z,47.58
2019-01-08T06:06:03.738Z,47.58
2019-01-08T06:11:07.195Z,47.56
2019-01-08T06:16:10.650Z,47.54
2019-01-08T06:21:14.109Z,47.54
2019-01-08T06:26:17.565Z,47.48
2019-01-08T06:31:22.687Z,47.46
2019-01-08T06:36:26.402Z,47.41
2019-01-08T06:41:29.838Z,47.38
2019-01-08T06:46:33.300Z,47.38
2019-01-08T06:51:36.762Z,47.40
2019-01-08T06:56:40.217Z,47.40
2019-01-08T07:01:43.673Z,47.35
2019-01-08T07:06:47.139Z,47.33
2019-01-08T07:11:50.604Z,47.31
2019-01-08T07:16:54.064Z,47.28
2019-01-08T07:21:57.521Z,47.24
2019-01-08T07:27:00.988Z,47.17
2019-01-08T07:32:04.455Z,47.15
2019-01-08T07:37:07.905Z,47.14
2019-01-08T07:42:11.364Z,47.11
2019-01-08T07:47:14.822Z,47.10
2019-01-08T07:52:18.278Z,47.09
2019-01-08T07:57:21.739Z,47.10
2019-01-08T08:02:25.212Z,47.11
2019-01-08T08:07:28.664Z,42.98
2019-01-08T08:12:32.123Z,40.04
2019-01-08T08:17:35.592Z,37.55
2019-01-08T08:22:39.053Z,37.67
2019-01-08T08:27:42.520Z,39.57
2019-01-08T08:32:45.976Z,40.65
2019-01-08T08:37:49.441Z,41.36
2019-01-08T08:42:52.898Z,41.90
2019-01-08T08:47:56.365Z,42.34
2019-01-08T08:52:59.822Z,42.66
2019-01-08T08:58:03.276Z,42.83
2019-01-08T09:03:06.734Z,42.98
2019-01-08T09:08:10.195Z,43.18
2019-01-08T09:13:13.653Z,43.29
2019-01-08T09:18:17.114Z,43.37
2019-01-08T09:23:20.586Z,43.29
2019-01-08T09:28:24.042Z,43.29
2019-01-08T09:33:27.508Z,43.60
2019-01-08T09:38:30.961Z,43.66
2019-01-08T09:43:34.425Z,43.69
2019-01-08T09:48:37.882Z,43.68
2019-01-08T09:53:41.345Z,43.69
2019-01-08T09:58:44.803Z,43.73
2019-01-08T10:03:48.263Z,43.75
2019-01-08T10:08:51.722Z,43.80
2019-01-08T10:13:55.182Z,43.88
2019-01-08T10:18:58.643Z,43.92
2019-01-08T10:24:02.242Z,44.01
2019-01-08T10:29:05.742Z,44.05
2019-01-08T10:34:09.203Z,44.04
2019-01-08T10:39:12.664Z,38.20
2019-01-08T10:44:16.128Z,33.81
2019-01-08T10:49:19.592Z,32.86
2019-01-08T10:54:23.058Z,34.04
2019-01-08T10:59:26.895Z,35.18
2019-01-08T11:04:30.355Z,37.29
2019-01-08T11:09:33.821Z,38.33
2019-01-08T11:14:37.286Z,39.07
2019-01-08T11:19:40.743Z,39.10
2019-01-08T11:24:44.207Z,39.62
2019-01-08T11:29:47.668Z,40.13
2019-01-08T11:34:51.129Z,41.17
2019-01-08T11:39:54.589Z,41.62
2019-01-08T11:44:58.046Z,41.66
2019-01-08T11:50:01.510Z,41.81
2019-01-08T11:55:06.182Z,41.78
2019-01-08T12:00:11.846Z,41.85
2019-01-08T12:05:15.300Z,41.84
2019-01-08T12:10:18.766Z,41.86
2019-01-08T12:15:22.225Z,41.84
2019-01-08T12:20:25.692Z,41.88
2019-01-08T12:25:29.616Z,41.95
2019-01-08T12:30:33.193Z,42.07
2019-01-08T12:35:36.670Z,42.43
2019-01-08T12:40:40.121Z,42.84
2019-01-08T12:45:43.586Z,43.17
2019-01-08T12:50:47.053Z,43.41
2019-01-08T12:55:50.521Z,43.53
2019-01-08T13:00:53.992Z,43.64
2019-01-08T13:05:57.452Z,43.58
2019-01-08T13:11:00.913Z,43.59
2019-01-08T13:16:04.373Z,43.54
2019-01-08T13:21:07.832Z,43.58
2019-01-08T13:26:11.298Z,43.65
2019-01-08T13:31:14.758Z,43.72
2019-01-08T13:36:18.223Z,43.82
2019-01-08T13:41:21.691Z,43.90
2019-01-08T13:46:25.155Z,43.94
2019-01-08T13:51:28.618Z,43.92
2019-01-08T13:56:32.083Z,43.89
2019-01-08T14:01:35.551Z,43.86
2019-01-08T14:06:39.012Z,43.81
2019-01-08T14:11:42.478Z,43.81
2019-01-08T14:16:45.945Z,43.79
2019-01-08T14:21:49.472Z,43.84
2019-01-08T14:26:53.006Z,43.99
2019-01-08T14:31:56.470Z,44.02
2019-01-08T14:36:59.934Z,44.03
2019-01-08T14:42:03.639Z,43.29
2019-01-08T14:47:07.111Z,43.82
2019-01-08T14:52:10.579Z,44.28
2019-01-08T14:57:14.047Z,44.61
2019-01-08T15:07:34.506Z,45.12
2019-01-08T15:12:37.972Z,45.40
2019-01-08T15:17:41.434Z,45.51
2019-01-08T15:22:44.893Z,45.56
2019-01-08T15:27:48.352Z,45.64
2019-01-08T15:32:58.192Z,45.64
2019-01-08T15:37:57.011Z,45.58
2019-01-08T15:43:00.475Z,45.57
2019-01-08T15:48:05.282Z,45.51
2019-01-08T15:53:09.052Z,45.53
2019-01-08T15:58:12.531Z,45.56
2019-01-08T16:03:15.983Z,45.57
2019-01-08T16:08:19.451Z,45.50
2019-01-08T16:13:22.920Z,45.56
2019-01-08T16:18:26.558Z,45.59
2019-01-08T16:23:30.019Z,45.57
2019-01-08T16:28:33.500Z,45.52
2019-01-08T16:33:36.994Z,45.45
2019-01-08T16:38:40.473Z,45.29
2019-01-08T16:43:43.948Z,45.16
2019-01-08T16:48:47.428Z,45.10
2019-01-08T16:53:50.904Z,44.98
2019-01-08T16:58:54.388Z,44.93
2019-01-08T17:03:57.866Z,44.86
2019-01-08T17:09:01.349Z,44.86
2019-01-08T17:14:04.831Z,44.84
2019-01-08T17:19:08.309Z,44.84
2019-01-08T17:24:11.790Z,44.87
2019-01-08T17:29:15.275Z,44.88
2019-01-08T17:34:18.754Z,44.92
2019-01-08T17:39:22.235Z,44.51
2019-01-08T17:44:25.714Z,44.69
2019-01-08T17:49:29.197Z,44.75
2019-01-08T17:54:32.677Z,44.68
2019-01-08T17:59:36.160Z,44.46
2019-01-08T18:04:39.623Z,44.24
2019-01-08T18:09:43.087Z,44.04
2019-01-08T18:14:46.553Z,43.81
2019-01-08T18:19:50.014Z,43.62
2019-01-08T18:24:53.480Z,43.49
2019-01-08T18:29:56.947Z,43.35
2019-01-08T18:35:00.411Z,43.19
2019-01-08T18:40:05.214Z,43.02
2019-01-08T18:45:08.728Z,42.88
2019-01-08T18:50:12.153Z,42.67
2019-01-08T18:55:15.619Z,42.45
2019-01-08T19:00:20.260Z,42.25
2019-01-08T19:05:23.725Z,41.97
2019-01-08T19:10:27.194Z,41.86
2019-01-08T19:15:30.653Z,41.60
2019-01-08T19:20:34.118Z,41.44
2019-01-08T19:25:37.581Z,41.63
2019-01-08T19:30:41.046Z,41.82
2019-01-08T19:35:44.516Z,41.95
2019-01-08T19:40:47.981Z,42.03
2019-01-08T19:45:51.442Z,42.08
2019-01-08T19:50:55.078Z,42.11
2019-01-08T19:55:58.543Z,42.26
2019-01-08T20:01:02.010Z,42.26
2019-01-08T20:06:05.470Z,42.33
2019-01-08T20:11:08.934Z,42.44
2019-01-08T20:16:12.396Z,42.58
2019-01-08T20:21:15.861Z,42.66
2019-01-08T20:26:19.326Z,42.68
2019-01-08T20:31:22.791Z,42.75
2019-01-08T20:36:26.253Z,42.77
2019-01-08T20:41:29.714Z,42.80
2019-01-08T20:46:33.177Z,42.78
2019-01-08T20:51:36.642Z,42.79
2019-01-08T20:56:40.117Z,42.80
2019-01-08T21:01:43.585Z,42.78
2019-01-08T21:06:47.058Z,42.73
2019-01-08T21:11:50.520Z,42.77
2019-01-08T21:16:53.982Z,42.78
2019-01-08T21:21:57.451Z,42.84
2019-01-08T21:27:00.943Z,42.93
2019-01-08T21:32:04.806Z,43.00
2019-01-08T21:37:09.227Z,43.08
2019-01-08T21:42:12.708Z,43.14
2019-01-08T21:47:16.196Z,43.19
2019-01-08T21:52:19.684Z,43.24
2019-01-08T21:57:24.134Z,43.30
2019-01-08T22:02:27.789Z,43.35
2019-01-08T22:07:31.268Z,43.37
2019-01-08T22:12:34.796Z,43.41
2019-01-08T22:17:38.221Z,43.41
2019-01-08T22:22:41.704Z,43.44
2019-01-08T22:27:45.188Z,43.48
2019-01-08T22:32:48.665Z,43.53
2019-01-08T22:37:52.140Z,43.58
2019-01-08T22:42:55.618Z,43.64
2019-01-08T22:47:59.365Z,43.69
2019-01-08T22:53:02.847Z,43.71
2019-01-08T22:58:06.764Z,43.75
2019-01-08T23:03:10.299Z,43.80
2019-01-08T23:08:13.762Z,43.85
2019-01-08T23:13:17.226Z,43.89
2019-01-08T23:18:20.692Z,43.91
2019-01-08T23:23:24.165Z,43.96
2019-01-08T23:28:27.642Z,43.95
2019-01-08T23:33:31.102Z,44.01
2019-01-08T23:38:34.562Z,44.04
2019-01-08T23:43:38.041Z,44.12
2019-01-08T23:48:41.504Z,44.09
2019-01-08T23:53:45.943Z,44.08
2019-01-08T23:58:49.417Z,44.13
